Aérodrome :
LOGIN :

S'inscrire | Disclaimer

   EN    FR    IT 

 










Légende :    VFR   VFR Marginal   IFR   IFR Intensif   IFR Très Intensif
Visi : 
Plafond : 
>= 8 km
>= 3000ft
5 à 8 km
1000 à 3000 ft
1500m à 5 km
500 à 1000 ft
800 à 1500m
200 à 500 ft
< 800m
< 200 ft
Symboles :   Orages  Brouillard  Fortes neiges  Fortes précipitations  Vent > 20 kt
SIGMETs :   Divers  Orages  Givrage  Turbulence  Onde Orograph.  Cendres Volcan.






- Altitude de l'aérodrome : 245 ft
- Code IATA : BIQ


LFBZ - Biarritz

DERNIER METAR :
  • 242330Z AUTO 25004KT 200V290 8000 OVC018 11/08 Q1022 TEMPO 4000 BR BECMG BKN014

METARs EXPIRÉS :
  • 242300Z AUTO 25005KT 210V290 9000 OVC018 11/07 Q1023 TEMPO 4000 BR BECMG BKN014
  • 242230Z AUTO 24004KT 200V280 9000 OVC019 11/07 Q1023 TEMPO 4000 BR BECMG BKN014
  • 242200Z AUTO 27008KT 9999 OVC019 11/07 Q1023 TEMPO 4000 BR BECMG BKN014
  • 242130Z AUTO 27007KT 220V300 8000 OVC019 11/08 Q1024 TEMPO 4000 BR BECMG BKN014
  • 242100Z AUTO 29010KT 9000 OVC016 11/08 Q1024 TEMPO 4000 BR BECMG BKN014

TAF TAF LFBZ
Valide du 25 à 00h jusqu'au 26 à 00h UTC


242300Z 2500/2524 25008KT 9999 OVC015
BECMG 2502/2504 BKN030
BECMG 2510/2512 26015G25KT
TEMPO 2510/2514 -RA OVC015
PROB40
TEMPO 2514/2524 28020G35KT 4000 SHRA BKN025TCU



MET'MAP, la Météo Aéronautique d'un coup d'oeil ! - Copyright ORBIFLY Décembre 2007 - Disclaimer

ORBIFLY MET'MAP TEAM :

Programmation & Développement : Alexandra Zaïnal
Sur une idée originale de : Baudouin d'Aumeries
Assistance à la programmation : Marc-Olivier Méhu
Soutien technique & logistique : Manuel Goepfert

Contact : metmap@orbifly.com




SOURCES & CREDITS :

   NOAA